Time,TemperatureF,DewpointF,PressureIn,WindDirection,WindDirectionDegrees,WindSpeedMPH,WindSpeedGustMPH,Humidity,HourlyPrecipIn,Conditions,Clouds,dailyrainin,SoftwareType,DateUTC
2013-09-17 00:01:00,36.7,33.1,30.27,ENE,68,2.0,3.4,87,0.00,,,0.00,WUHU216HW,2013-09-17 04:01:00,
2013-09-17 00:02:00,36.5,33.3,30.27,ENE,68,3.4,3.6,88,0.00,,,0.00,WUHU216HW,2013-09-17 04:02:00,
2013-09-17 00:07:00,36.2,32.6,30.27,West,270,0.4,3.6,87,0.00,,,0.00,WUHU216HW,2013-09-17 04:07:00,
2013-09-17 00:12:00,36.0,32.4,30.27,North,0,0.9,2.9,87,0.00,,,0.00,WUHU216HW,2013-09-17 04:12:00,
2013-09-17 00:17:00,35.8,32.2,30.28,ENE,68,0.0,1.6,87,0.00,,,0.00,WUHU216HW,2013-09-17 04:17:00,
2013-09-17 00:22:00,35.6,32.0,30.28,NW,315,1.8,2.5,87,0.00,,,0.00,WUHU216HW,2013-09-17 04:22:00,
2013-09-17 00:27:00,35.5,31.9,30.28,NNW,338,0.2,2.5,87,0.00,,,0.00,WUHU216HW,2013-09-17 04:27:00,
2013-09-17 00:32:00,35.5,31.9,30.28,North,0,0.4,2.0,87,0.00,,,0.00,WUHU216HW,2013-09-17 04:32:00,
2013-09-17 00:37:00,35.3,31.7,30.28,East,90,0.4,1.8,87,0.00,,,0.00,WUHU216HW,2013-09-17 04:37:00,
2013-09-17 00:42:00,35.1,31.5,30.28,North,0,0.0,1.1,87,0.00,,,0.00,WUHU216HW,2013-09-17 04:42:00,
2013-09-17 00:47:00,34.9,31.3,30.28,North,0,0.4,1.6,87,0.00,,,0.00,WUHU216HW,2013-09-17 04:47:00,
2013-09-17 00:52:00,34.7,31.1,30.28,NNE,23,1.3,2.5,87,0.00,,,0.00,WUHU216HW,2013-09-17 04:52:00,
2013-09-17 00:57:00,34.6,31.0,30.28,SW,225,0.9,2.5,87,0.00,,,0.00,WUHU216HW,2013-09-17 04:57:00,
2013-09-17 01:02:00,34.6,31.0,30.28,NNE,23,0.4,1.8,87,0.00,,,0.00,WUHU216HW,2013-09-17 05:02:00,
2013-09-17 01:07:00,34.6,31.0,30.29,WNW,293,1.1,1.1,87,0.00,,,0.00,WUHU216HW,2013-09-17 05:07:00,
2013-09-17 01:12:00,34.6,31.0,30.29,North,0,0.0,1.6,87,0.00,,,0.00,WUHU216HW,2013-09-17 05:12:00,
2013-09-17 01:17:00,34.7,31.1,30.29,NNE,23,0.0,1.6,87,0.00,,,0.00,WUHU216HW,2013-09-17 05:17:00,
2013-09-17 01:22:00,34.9,31.3,30.29,ENE,68,0.4,0.4,87,0.00,,,0.00,WUHU216HW,2013-09-17 05:22:00,
2013-09-17 01:27:00,34.9,31.7,30.29,NNE,23,0.7,1.8,88,0.00,,,0.00,WUHU216HW,2013-09-17 05:27:00,
2013-09-17 01:32:00,34.9,31.7,30.29,North,0,1.1,1.8,88,0.00,,,0.00,WUHU216HW,2013-09-17 05:32:00,
2013-09-17 01:37:00,34.9,31.7,30.30,NNW,338,0.0,1.1,88,0.00,,,0.00,WUHU216HW,2013-09-17 05:37:00,
2013-09-17 01:42:00,34.9,31.7,30.30,NNE,23,0.4,1.1,88,0.00,,,0.00,WUHU216HW,2013-09-17 05:42:00,
2013-09-17 01:47:00,34.9,31.7,30.30,NE,45,0.7,1.1,88,0.00,,,0.00,WUHU216HW,2013-09-17 05:47:00,
2013-09-17 01:52:00,35.1,31.9,30.30,NNE,23,0.2,1.1,88,0.00,,,0.00,WUHU216HW,2013-09-17 05:52:00,
2013-09-17 01:57:00,35.3,32.1,30.29,NNW,338,0.0,1.1,88,0.00,,,0.00,WUHU216HW,2013-09-17 05:57:00,
2013-09-17 02:02:00,35.5,32.2,30.29,NNW,338,0.0,0.7,88,0.00,,,0.00,WUHU216HW,2013-09-17 06:02:00,
2013-09-17 02:07:00,35.6,32.7,30.29,WNW,293,1.3,1.6,89,0.00,,,0.00,WUHU216HW,2013-09-17 06:07:00,
2013-09-17 02:12:00,35.8,32.9,30.29,NNW,338,0.0,1.6,89,0.00,,,0.00,WUHU216HW,2013-09-17 06:12:00,
2013-09-17 02:17:00,36.0,33.0,30.30,North,0,0.9,1.3,89,0.00,,,0.00,WUHU216HW,2013-09-17 06:17:00,
2013-09-17 02:22:00,36.0,33.0,30.30,NNE,23,0.9,1.3,89,0.00,,,0.00,WUHU216HW,2013-09-17 06:22:00,
2013-09-17 02:27:00,36.0,33.0,30.29,NE,45,0.7,1.3,89,0.00,,,0.00,WUHU216HW,2013-09-17 06:27:00,
2013-09-17 02:32:00,36.2,33.2,30.30,NNW,338,0.0,1.1,89,0.00,,,0.00,WUHU216HW,2013-09-17 06:32:00,
2013-09-17 02:37:00,36.4,33.4,30.29,North,0,0.0,0.7,89,0.00,,,0.00,WUHU216HW,2013-09-17 06:37:00,
2013-09-17 02:42:00,36.2,33.2,30.29,NNE,23,0.4,1.3,89,0.00,,,0.00,WUHU216HW,2013-09-17 06:42:00,
2013-09-17 02:47:00,36.0,33.0,30.30,NNW,338,0.4,1.3,89,0.00,,,0.00,WUHU216HW,2013-09-17 06:47:00,
2013-09-17 02:52:00,35.6,32.7,30.30,NNE,23,1.6,2.2,89,0.00,,,0.00,WUHU216HW,2013-09-17 06:52:00,
2013-09-17 02:57:00,35.3,32.3,30.30,NNW,338,0.7,2.2,89,0.00,,,0.00,WUHU216HW,2013-09-17 06:57:00,
2013-09-17 03:02:00,35.1,32.1,30.30,North,0,1.1,1.6,89,0.00,,,0.00,WUHU216HW,2013-09-17 07:02:00,
2013-09-17 03:07:00,34.9,32.0,30.30,NW,315,0.7,1.1,89,0.00,,,0.00,WUHU216HW,2013-09-17 07:07:00,
2013-09-17 03:12:00,34.6,31.6,30.30,NNW,338,0.0,1.1,89,0.00,,,0.00,WUHU216HW,2013-09-17 07:12:00,
2013-09-17 03:17:00,34.4,31.4,30.30,North,0,0.0,1.1,89,0.00,,,0.00,WUHU216HW,2013-09-17 07:17:00,
2013-09-17 03:22:00,34.2,31.2,30.30,North,0,0.0,0.4,89,0.00,,,0.00,WUHU216HW,2013-09-17 07:22:00,
2013-09-17 03:27:00,34.0,31.1,30.31,WNW,293,0.0,0.0,89,0.00,,,0.00,WUHU216HW,2013-09-17 07:27:00,
2013-09-17 03:32:00,33.8,30.9,30.31,NE,45,1.3,1.6,89,0.00,,,0.00,WUHU216HW,2013-09-17 07:32:00,
2013-09-17 03:37:00,33.5,30.5,30.31,North,0,0.0,1.6,89,0.00,,,0.00,WUHU216HW,2013-09-17 07:37:00,
2013-09-17 03:42:00,33.5,30.5,30.31,NW,315,1.1,1.3,89,0.00,,,0.00,WUHU216HW,2013-09-17 07:42:00,
2013-09-17 03:47:00,33.5,30.5,30.31,NE,45,1.3,1.3,89,0.00,,,0.00,WUHU216HW,2013-09-17 07:47:00,
2013-09-17 03:52:00,33.3,30.3,30.31,NE,45,0.4,1.8,89,0.00,,,0.00,WUHU216HW,2013-09-17 07:52:00,
2013-09-17 03:57:00,33.3,30.7,30.31,NE,45,1.3,1.8,90,0.00,,,0.00,WUHU216HW,2013-09-17 07:57:00,
2013-09-17 04:02:00,33.1,30.5,30.31,NNE,23,1.1,1.3,90,0.00,,,0.00,WUHU216HW,2013-09-17 08:02:00,
2013-09-17 04:07:00,33.5,30.8,30.31,NNW,338,0.2,1.3,90,0.00,,,0.00,WUHU216HW,2013-09-17 08:07:00,
2013-09-17 04:13:00,33.5,30.8,30.32,North,0,0.4,1.1,90,0.00,,,0.00,WUHU216HW,2013-09-17 08:13:00,
2013-09-17 04:18:00,33.5,30.8,30.32,NNW,338,0.9,1.8,90,0.00,,,0.00,WUHU216HW,2013-09-17 08:18:00,
2013-09-17 04:23:00,33.5,30.8,30.32,NNW,338,0.9,1.6,90,0.00,,,0.00,WUHU216HW,2013-09-17 08:23:00,
2013-09-17 04:28:00,33.5,31.1,30.32,WNW,293,1.1,2.0,91,0.00,,,0.00,WUHU216HW,2013-09-17 08:28:00,
2013-09-17 04:33:00,33.3,31.0,30.33,NE,45,0.7,2.0,91,0.00,,,0.00,WUHU216HW,2013-09-17 08:33:00,
2013-09-17 04:38:00,33.3,31.0,30.32,NNE,23,1.1,1.8,91,0.00,,,0.00,WUHU216HW,2013-09-17 08:38:00,
2013-09-17 04:43:00,33.3,31.0,30.33,North,0,0.4,1.8,91,0.00,,,0.00,WUHU216HW,2013-09-17 08:43:00,
2013-09-17 04:48:00,33.5,31.1,30.32,NNW,338,0.0,1.1,91,0.00,,,0.00,WUHU216HW,2013-09-17 08:48:00,
2013-09-17 04:53:00,33.5,31.1,30.33,NNE,23,1.6,1.8,91,0.00,,,0.00,WUHU216HW,2013-09-17 08:53:00,
2013-09-17 04:58:00,33.7,31.2,30.33,NNE,23,1.6,2.2,91,0.00,,,0.00,WUHU216HW,2013-09-17 08:58:00,
2013-09-17 05:03:00,33.7,31.2,30.33,North,0,0.7,2.2,91,0.00,,,0.00,WUHU216HW,2013-09-17 09:03:00,
2013-09-17 05:08:00,33.8,31.4,30.33,NNW,338,0.7,1.8,91,0.00,,,0.00,WUHU216HW,2013-09-17 09:08:00,
2013-09-17 05:13:00,33.8,31.4,30.33,NNW,338,1.1,1.1,91,0.00,,,0.00,WUHU216HW,2013-09-17 09:13:00,
2013-09-17 05:18:00,33.8,31.4,30.33,NW,315,1.8,1.8,91,0.00,,,0.00,WUHU216HW,2013-09-17 09:18:00,
2013-09-17 05:23:00,33.7,31.2,30.33,NNW,338,0.7,1.8,91,0.00,,,0.00,WUHU216HW,2013-09-17 09:23:00,
2013-09-17 05:28:00,33.7,31.5,30.33,NNW,338,0.0,1.8,92,0.00,,,0.00,WUHU216HW,2013-09-17 09:28:00,
2013-09-17 05:33:00,33.7,31.5,30.33,North,0,0.4,0.7,92,0.00,,,0.00,WUHU216HW,2013-09-17 09:33:00,
2013-09-17 05:38:00,33.7,31.5,30.33,North,0,1.1,1.1,92,0.00,,,0.00,WUHU216HW,2013-09-17 09:38:00,
2013-09-17 05:43:00,33.7,31.5,30.33,North,0,0.4,1.1,92,0.00,,,0.00,WUHU216HW,2013-09-17 09:43:00,
2013-09-17 05:48:00,33.5,31.3,30.34,North,0,0.7,1.1,92,0.00,,,0.00,WUHU216HW,2013-09-17 09:48:00,
2013-09-17 05:53:00,33.3,31.1,30.34,NNW,338,1.1,1.1,92,0.00,,,0.00,WUHU216HW,2013-09-17 09:53:00,
2013-09-17 05:58:00,33.3,31.1,30.34,NNE,23,0.9,1.6,92,0.00,,,0.00,WUHU216HW,2013-09-17 09:58:00,
2013-09-17 06:03:00,33.1,31.1,30.34,NNW,338,0.9,1.8,92,0.00,,,0.00,WUHU216HW,2013-09-17 10:03:00,
2013-09-17 06:08:00,32.9,30.9,30.34,NNE,23,0.4,1.8,92,0.00,,,0.00,WUHU216HW,2013-09-17 10:08:00,
2013-09-17 06:13:00,32.9,30.9,30.34,NNE,23,1.1,1.8,92,0.00,,,0.00,WUHU216HW,2013-09-17 10:13:00,
2013-09-17 06:18:00,32.8,30.7,30.35,North,0,0.7,1.8,92,0.00,,,0.00,WUHU216HW,2013-09-17 10:18:00,
2013-09-17 06:23:00,32.8,30.7,30.35,NW,315,0.2,1.6,92,0.00,,,0.00,WUHU216HW,2013-09-17 10:23:00,
2013-09-17 06:28:00,32.8,30.7,30.35,NNW,338,0.0,0.9,92,0.00,,,0.00,WUHU216HW,2013-09-17 10:28:00,
2013-09-17 06:33:00,33.1,31.1,30.36,North,0,0.0,0.4,92,0.00,,,0.00,WUHU216HW,2013-09-17 10:33:00,
2013-09-17 06:38:00,33.1,31.1,30.36,North,0,0.0,0.4,92,0.00,,,0.00,WUHU216HW,2013-09-17 10:38:00,
2013-09-17 06:43:00,33.3,31.1,30.36,NNW,338,0.0,0.4,92,0.00,,,0.00,WUHU216HW,2013-09-17 10:43:00,
2013-09-17 06:47:00,33.3,31.1,30.36,NNW,338,0.0,0.9,92,0.00,,,0.00,WUHU216HW,2013-09-17 10:47:00,
2013-09-17 06:52:00,33.3,31.1,30.36,North,0,0.0,0.9,92,0.00,,,0.00,WUHU216HW,2013-09-17 10:52:00,
2013-09-17 06:57:00,33.5,31.3,30.37,North,0,0.4,0.4,92,0.00,,,0.00,WUHU216HW,2013-09-17 10:57:00,
2013-09-17 07:03:00,33.8,31.7,30.37,South,180,1.8,1.8,92,0.00,,,0.00,WUHU216HW,2013-09-17 11:03:00,
2013-09-17 07:08:00,34.0,31.9,30.37,South,180,1.8,2.2,92,0.00,,,0.00,WUHU216HW,2013-09-17 11:08:00,
2013-09-17 07:13:00,34.2,32.0,30.38,SE,135,1.6,2.2,92,0.00,,,0.00,WUHU216HW,2013-09-17 11:13:00,
2013-09-17 07:18:00,34.2,32.0,30.38,SSW,203,1.1,2.5,92,0.01,,,0.00,WUHU216HW,2013-09-17 11:18:00,
2013-09-17 07:23:00,34.6,32.4,30.38,South,180,0.0,2.5,92,0.01,,,0.00,WUHU216HW,2013-09-17 11:23:00,
2013-09-17 07:28:00,34.7,32.6,30.38,NNW,338,0.4,1.1,92,0.01,,,0.00,WUHU216HW,2013-09-17 11:28:00,
2013-09-17 07:33:00,34.9,32.8,30.38,SSE,158,0.7,1.1,92,0.01,,,0.00,WUHU216HW,2013-09-17 11:33:00,
2013-09-17 07:38:00,35.3,33.1,30.38,SW,225,0.2,2.0,92,0.01,,,0.00,WUHU216HW,2013-09-17 11:38:00,
2013-09-17 07:43:00,35.3,32.9,30.38,West,270,0.7,2.0,91,0.01,,,0.00,WUHU216HW,2013-09-17 11:43:00,
2013-09-17 07:48:00,35.5,33.3,30.39,SSW,203,0.0,1.3,92,0.01,,,0.00,WUHU216HW,2013-09-17 11:48:00,
2013-09-17 07:53:00,35.6,33.2,30.39,NNW,338,0.0,1.1,91,0.01,,,0.00,WUHU216HW,2013-09-17 11:53:00,
2013-09-17 07:58:00,36.0,33.6,30.39,SW,225,1.1,1.8,91,0.01,,,0.00,WUHU216HW,2013-09-17 11:58:00,
2013-09-17 08:03:00,36.2,33.8,30.39,WNW,293,0.9,2.2,91,0.01,,,0.00,WUHU216HW,2013-09-17 12:03:00,
2013-09-17 08:08:00,36.0,33.6,30.39,West,270,1.6,2.5,91,0.01,,,0.00,WUHU216HW,2013-09-17 12:08:00,
2013-09-17 08:13:00,35.8,33.4,30.39,North,0,0.0,2.5,91,0.01,,,0.00,WUHU216HW,2013-09-17 12:13:00,
2013-09-17 08:18:00,36.2,33.8,30.40,NE,45,0.4,1.6,91,0.00,,,0.00,WUHU216HW,2013-09-17 12:18:00,
2013-09-17 08:23:00,36.5,34.1,30.40,NE,45,0.0,2.0,91,0.00,,,0.00,WUHU216HW,2013-09-17 12:23:00,
2013-09-17 08:28:00,37.1,34.7,30.40,NNE,23,1.1,2.0,91,0.00,,,0.00,WUHU216HW,2013-09-17 12:28:00,
2013-09-17 08:33:00,37.8,35.4,30.40,ESE,113,0.2,1.3,91,0.00,,,0.00,WUHU216HW,2013-09-17 12:33:00,
2013-09-17 08:40:00,38.9,36.5,30.41,West,270,0.4,1.8,91,0.00,,,0.00,WUHU216HW,2013-09-17 12:40:00,
2013-09-17 08:45:00,39.2,36.8,30.40,WNW,293,1.1,2.5,91,0.00,,,0.00,WUHU216HW,2013-09-17 12:45:00,
2013-09-17 08:50:00,39.6,37.2,30.41,WNW,293,0.4,2.5,91,0.00,,,0.00,WUHU216HW,2013-09-17 12:50:00,
2013-09-17 08:55:00,40.1,37.7,30.41,WSW,248,2.2,3.4,91,0.00,,,0.00,WUHU216HW,2013-09-17 12:55:00,
2013-09-17 09:00:00,40.3,37.6,30.41,WNW,293,2.7,4.0,90,0.00,,,0.00,WUHU216HW,2013-09-17 13:00:00,
2013-09-17 09:05:00,40.1,37.4,30.41,NW,315,1.1,4.0,90,0.00,,,0.00,WUHU216HW,2013-09-17 13:05:00,
2013-09-17 09:10:00,40.3,37.4,30.41,North,0,1.6,2.9,89,0.00,,,0.00,WUHU216HW,2013-09-17 13:10:00,
2013-09-17 09:16:00,41.0,38.1,30.41,West,270,0.4,2.5,89,0.00,,,0.00,WUHU216HW,2013-09-17 13:16:00,
2013-09-17 09:21:00,41.8,38.8,30.41,NNE,23,1.1,2.2,89,0.00,,,0.00,WUHU216HW,2013-09-17 13:21:00,
2013-09-17 09:26:00,42.5,39.2,30.41,ENE,68,0.0,1.8,88,0.00,,,0.00,WUHU216HW,2013-09-17 13:26:00,
2013-09-17 09:31:00,43.2,39.9,30.41,NW,315,1.8,3.4,88,0.00,,,0.00,WUHU216HW,2013-09-17 13:31:00,
2013-09-17 09:36:00,43.9,40.6,30.41,NW,315,0.7,3.4,88,0.00,,,0.00,WUHU216HW,2013-09-17 13:36:00,
2013-09-17 09:41:00,44.6,41.1,30.41,North,0,0.4,2.2,87,0.00,,,0.00,WUHU216HW,2013-09-17 13:41:00,
2013-09-17 09:46:00,45.4,41.8,30.41,SSE,158,1.6,2.2,87,0.00,,,0.00,WUHU216HW,2013-09-17 13:46:00,
2013-09-17 09:51:00,46.4,42.2,30.41,West,270,1.1,2.0,85,0.00,,,0.00,WUHU216HW,2013-09-17 13:51:00,
2013-09-17 09:56:00,47.2,42.6,30.41,ESE,113,0.7,2.2,84,0.00,,,0.00,WUHU216HW,2013-09-17 13:56:00,
2013-09-17 10:01:00,47.5,42.6,30.41,SE,135,2.5,2.5,83,0.00,,,0.00,WUHU216HW,2013-09-17 14:01:00,
2013-09-17 10:06:00,48.1,42.5,30.41,ESE,113,1.1,2.5,81,0.00,,,0.00,WUHU216HW,2013-09-17 14:06:00,
2013-09-17 10:11:00,49.0,43.0,30.41,SSW,203,1.1,2.5,80,0.00,,,0.00,WUHU216HW,2013-09-17 14:11:00,
2013-09-17 10:16:00,49.7,42.8,30.40,NE,45,1.1,2.7,77,0.00,,,0.00,WUHU216HW,2013-09-17 14:16:00,
2013-09-17 10:22:00,50.0,41.7,30.40,NNE,23,2.5,2.7,73,0.00,,,0.00,WUHU216HW,2013-09-17 14:22:00,
2013-09-17 10:27:00,50.8,42.4,30.40,North,0,0.0,3.1,73,0.00,,,0.00,WUHU216HW,2013-09-17 14:27:00,
2013-09-17 10:32:00,51.3,43.7,30.40,South,180,2.5,3.8,75,0.00,,,0.00,WUHU216HW,2013-09-17 14:32:00,
2013-09-17 10:37:00,52.2,43.8,30.40,South,180,1.8,4.0,73,0.00,,,0.00,WUHU216HW,2013-09-17 14:37:00,
2013-09-17 10:42:00,52.4,42.9,30.40,SSW,203,3.1,4.9,70,0.00,,,0.00,WUHU216HW,2013-09-17 14:42:00,
2013-09-17 10:47:00,52.9,43.8,30.40,South,180,1.1,4.9,71,0.00,,,0.00,WUHU216HW,2013-09-17 14:47:00,
2013-09-17 10:52:00,53.6,44.5,30.40,SSE,158,6.7,6.7,71,0.00,,,0.00,WUHU216HW,2013-09-17 14:52:00,
2013-09-17 10:57:00,53.6,43.3,30.40,SSE,158,3.8,6.7,68,0.00,,,0.00,WUHU216HW,2013-09-17 14:57:00,
2013-09-17 11:02:00,54.0,43.7,30.39,SSW,203,2.5,6.7,68,0.00,,,0.00,WUHU216HW,2013-09-17 15:02:00,
2013-09-17 11:07:00,54.4,44.0,30.39,WSW,248,3.6,4.3,68,0.00,,,0.00,WUHU216HW,2013-09-17 15:07:00,
2013-09-17 11:12:00,54.9,43.8,30.39,North,0,0.9,4.9,66,0.00,,,0.00,WUHU216HW,2013-09-17 15:12:00,
2013-09-17 11:17:00,55.4,44.3,30.39,ESE,113,3.1,4.9,66,0.00,,,0.00,WUHU216HW,2013-09-17 15:17:00,
2013-09-17 11:22:00,55.3,43.3,30.39,SSE,158,2.5,3.6,64,0.00,,,0.00,WUHU216HW,2013-09-17 15:22:00,
2013-09-17 11:27:00,55.1,42.7,30.39,NNE,23,2.5,3.6,63,0.00,,,0.00,WUHU216HW,2013-09-17 15:27:00,
2013-09-17 11:32:00,55.8,41.7,30.39,NE,45,3.4,3.6,59,0.00,,,0.00,WUHU216HW,2013-09-17 15:32:00,
2013-09-17 11:37:00,55.4,41.8,30.39,ENE,68,3.4,4.0,60,0.00,,,0.00,WUHU216HW,2013-09-17 15:37:00,
2013-09-17 11:42:00,55.8,41.7,30.39,North,0,4.3,7.4,59,0.00,,,0.00,WUHU216HW,2013-09-17 15:42:00,
2013-09-17 11:47:00,55.4,39.4,30.38,ENE,68,1.8,7.4,55,0.00,,,0.00,WUHU216HW,2013-09-17 15:47:00,
2013-09-17 11:52:00,55.6,41.1,30.38,ENE,68,1.8,6.3,58,0.00,,,0.00,WUHU216HW,2013-09-17 15:52:00,
2013-09-17 11:57:00,55.8,40.7,30.38,WSW,248,3.1,6.0,57,0.00,,,0.00,WUHU216HW,2013-09-17 15:57:00,
2013-09-17 12:02:00,56.0,41.4,30.38,ENE,68,1.1,6.0,58,0.00,,,0.00,WUHU216HW,2013-09-17 16:02:00,
2013-09-17 12:07:00,56.5,42.0,30.38,SSW,203,1.1,4.3,58,0.00,,,0.00,WUHU216HW,2013-09-17 16:07:00,
2013-09-17 12:12:00,57.1,41.9,30.38,WSW,248,1.3,4.7,57,0.00,,,0.00,WUHU216HW,2013-09-17 16:12:00,
2013-09-17 12:17:00,57.2,42.7,30.38,WSW,248,2.5,5.8,58,0.00,,,0.00,WUHU216HW,2013-09-17 16:17:00,
2013-09-17 12:22:00,57.2,42.7,30.37,SW,225,1.6,5.8,58,0.00,,,0.00,WUHU216HW,2013-09-17 16:22:00,
2013-09-17 12:28:00,57.2,41.2,30.37,SSE,158,1.6,4.7,55,0.00,,,0.00,WUHU216HW,2013-09-17 16:28:00,
2013-09-17 12:33:00,57.6,42.0,30.37,SW,225,2.0,4.3,56,0.00,,,0.00,WUHU216HW,2013-09-17 16:33:00,
2013-09-17 12:38:00,58.1,42.9,30.37,SSE,158,5.4,7.4,57,0.00,,,0.00,WUHU216HW,2013-09-17 16:38:00,
2013-09-17 12:43:00,58.0,41.0,30.37,NE,45,1.8,8.9,53,0.00,,,0.00,WUHU216HW,2013-09-17 16:43:00,
2013-09-17 12:48:00,57.4,41.0,30.37,ESE,113,4.0,8.9,54,0.00,,,0.00,WUHU216HW,2013-09-17 16:48:00,
2013-09-17 12:53:00,57.8,42.2,30.36,SSE,158,3.4,6.0,56,0.00,,,0.00,WUHU216HW,2013-09-17 16:53:00,
2013-09-17 12:58:00,58.3,43.1,30.36,South,180,4.7,6.0,57,0.00,,,0.00,WUHU216HW,2013-09-17 16:58:00,
2013-09-17 13:03:00,59.0,42.8,30.36,SW,225,2.0,4.7,55,0.00,,,0.00,WUHU216HW,2013-09-17 17:03:00,
2013-09-17 13:08:00,59.4,42.2,30.36,ESE,113,2.5,4.7,53,0.00,,,0.00,WUHU216HW,2013-09-17 17:08:00,
2013-09-17 13:13:00,59.4,40.9,30.36,WSW,248,1.1,4.9,50,0.00,,,0.00,WUHU216HW,2013-09-17 17:13:00,
2013-09-17 13:21:00,59.4,41.3,30.36,NNW,338,3.8,7.6,51,0.00,,,0.00,WUHU216HW,2013-09-17 17:21:00,
2013-09-17 13:26:00,59.4,40.9,30.35,SW,225,1.1,7.6,50,0.00,,,0.00,WUHU216HW,2013-09-17 17:26:00,
2013-09-17 13:31:00,59.8,41.1,30.35,SSW,203,2.5,6.3,50,0.00,,,0.00,WUHU216HW,2013-09-17 17:31:00,
2013-09-17 13:36:00,60.1,40.3,30.35,NW,315,4.0,8.3,48,0.00,,,0.00,WUHU216HW,2013-09-17 17:36:00,
2013-09-17 13:41:00,60.3,40.5,30.35,WSW,248,4.7,8.3,48,0.00,,,0.00,WUHU216HW,2013-09-17 17:41:00,
2013-09-17 13:46:00,60.7,41.4,30.35,West,270,4.7,5.4,49,0.00,,,0.00,WUHU216HW,2013-09-17 17:46:00,
2013-09-17 13:51:00,60.8,39.8,30.34,North,0,4.0,8.3,46,0.00,,,0.00,WUHU216HW,2013-09-17 17:51:00,
2013-09-17 13:56:00,60.8,39.8,30.34,NE,45,4.3,8.3,46,0.00,,,0.00,WUHU216HW,2013-09-17 17:56:00,
2013-09-17 14:01:00,60.8,40.4,30.34,NNW,338,4.3,7.4,47,0.00,,,0.00,WUHU216HW,2013-09-17 18:01:00,
2013-09-17 14:06:00,60.7,40.2,30.34,South,180,1.1,8.3,47,0.00,,,0.00,WUHU216HW,2013-09-17 18:06:00,
2013-09-17 14:11:00,60.8,40.4,30.34,SE,135,0.2,8.3,47,0.00,,,0.00,WUHU216HW,2013-09-17 18:11:00,
2013-09-17 14:16:00,60.8,39.2,30.33,NE,45,5.1,8.7,45,0.00,,,0.00,WUHU216HW,2013-09-17 18:16:00,
2013-09-17 14:21:00,60.8,39.8,30.33,NW,315,2.5,8.7,46,0.00,,,0.00,WUHU216HW,2013-09-17 18:21:00,
2013-09-17 14:26:00,61.0,40.6,30.33,NNW,338,0.9,6.0,47,0.00,,,0.00,WUHU216HW,2013-09-17 18:26:00,
2013-09-17 14:31:00,61.4,40.3,30.33,North,0,5.4,6.3,46,0.00,,,0.00,WUHU216HW,2013-09-17 18:31:00,
2013-09-17 14:36:00,61.6,39.9,30.33,North,0,2.0,6.3,45,0.00,,,0.00,WUHU216HW,2013-09-17 18:36:00,
2013-09-17 14:41:00,61.6,40.5,30.33,West,270,3.4,5.6,46,0.00,,,0.00,WUHU216HW,2013-09-17 18:41:00,
2013-09-17 14:46:00,61.6,39.9,30.32,WNW,293,4.3,5.8,45,0.00,,,0.00,WUHU216HW,2013-09-17 18:46:00,
2013-09-17 14:51:00,61.7,41.2,30.32,West,270,3.4,5.8,47,0.00,,,0.00,WUHU216HW,2013-09-17 18:51:00,
2013-09-17 14:56:00,62.3,41.7,30.32,West,270,3.4,5.4,47,0.00,,,0.00,WUHU216HW,2013-09-17 18:56:00,
2013-09-17 15:01:00,62.1,41.0,30.32,WSW,248,6.3,6.3,46,0.00,,,0.00,WUHU216HW,2013-09-17 19:01:00,
2013-09-17 15:06:00,62.3,40.5,30.32,North,0,4.0,6.3,45,0.00,,,0.00,WUHU216HW,2013-09-17 19:06:00,
2013-09-17 15:11:00,61.9,40.8,30.32,WSW,248,2.7,6.3,46,0.00,,,0.00,WUHU216HW,2013-09-17 19:11:00,
2013-09-17 15:16:00,61.6,39.3,30.31,NNW,338,3.1,4.9,44,0.00,,,0.00,WUHU216HW,2013-09-17 19:16:00,
2013-09-17 15:21:00,61.6,39.9,30.31,SE,135,0.4,4.9,45,0.00,,,0.00,WUHU216HW,2013-09-17 19:21:00,
2013-09-17 15:26:00,61.9,40.2,30.31,NW,315,4.0,4.7,45,0.00,,,0.00,WUHU216HW,2013-09-17 19:26:00,
2013-09-17 15:31:00,61.7,40.1,30.31,NE,45,5.6,6.3,45,0.00,,,0.00,WUHU216HW,2013-09-17 19:31:00,
2013-09-17 15:36:00,61.9,40.8,30.31,North,0,3.1,6.3,46,0.00,,,0.00,WUHU216HW,2013-09-17 19:36:00,
2013-09-17 15:41:00,61.9,40.8,30.31,NE,45,1.1,5.6,46,0.00,,,0.00,WUHU216HW,2013-09-17 19:41:00,
2013-09-17 15:46:00,61.9,40.8,30.31,NNW,338,3.4,4.3,46,0.00,,,0.00,WUHU216HW,2013-09-17 19:46:00,
2013-09-17 15:51:00,61.9,40.2,30.31,WNW,293,4.7,7.6,45,0.00,,,0.00,WUHU216HW,2013-09-17 19:51:00,
2013-09-17 15:55:00,61.7,40.6,30.31,NW,315,4.7,7.6,46,0.00,,,0.00,WUHU216HW,2013-09-17 19:55:00,
2013-09-17 16:00:00,61.9,40.2,30.30,West,270,2.5,5.1,45,0.00,,,0.00,WUHU216HW,2013-09-17 20:00:00,
2013-09-17 16:05:00,61.7,40.1,30.31,East,90,0.9,6.7,45,0.00,,,0.00,WUHU216HW,2013-09-17 20:05:00,
2013-09-17 16:10:00,61.9,40.2,30.30,NNW,338,4.9,6.7,45,0.00,,,0.00,WUHU216HW,2013-09-17 20:10:00,
2013-09-17 16:15:00,61.7,39.5,30.30,NE,45,2.5,5.8,44,0.00,,,0.00,WUHU216HW,2013-09-17 20:15:00,
2013-09-17 16:20:00,61.6,39.9,30.30,NNW,338,3.1,5.8,45,0.00,,,0.00,WUHU216HW,2013-09-17 20:20:00,
2013-09-17 16:25:00,61.7,40.1,30.30,North,0,2.2,6.3,45,0.00,,,0.00,WUHU216HW,2013-09-17 20:25:00,
2013-09-17 16:30:00,61.6,40.5,30.30,NW,315,5.1,6.3,46,0.00,,,0.00,WUHU216HW,2013-09-17 20:30:00,
2013-09-17 16:35:00,61.6,40.5,30.30,North,0,1.1,5.1,46,0.00,,,0.00,WUHU216HW,2013-09-17 20:35:00,
2013-09-17 16:40:00,61.6,40.5,30.30,North,0,3.4,5.1,46,0.00,,,0.00,WUHU216HW,2013-09-17 20:40:00,
2013-09-17 16:45:00,61.6,41.0,30.30,WNW,293,4.3,5.1,47,0.00,,,0.00,WUHU216HW,2013-09-17 20:45:00,
2013-09-17 16:50:00,61.4,40.3,30.29,West,270,1.8,4.9,46,0.00,,,0.00,WUHU216HW,2013-09-17 20:50:00,
2013-09-17 16:55:00,61.2,40.7,30.29,WNW,293,2.9,4.9,47,0.00,,,0.00,WUHU216HW,2013-09-17 20:55:00,
2013-09-17 17:00:00,61.6,41.6,30.29,NW,315,2.9,5.4,48,0.00,,,0.00,WUHU216HW,2013-09-17 21:00:00,
2013-09-17 17:05:00,61.2,40.7,30.29,WSW,248,2.9,5.4,47,0.00,,,0.00,WUHU216HW,2013-09-17 21:05:00,
2013-09-17 17:10:00,61.2,41.3,30.29,NNW,338,4.0,4.9,48,0.00,,,0.00,WUHU216HW,2013-09-17 21:10:00,
2013-09-17 17:15:00,61.2,41.9,30.29,WSW,248,3.8,4.9,49,0.00,,,0.00,WUHU216HW,2013-09-17 21:15:00,
2013-09-17 17:20:00,61.0,41.7,30.29,West,270,2.5,4.9,49,0.00,,,0.00,WUHU216HW,2013-09-17 21:20:00,
2013-09-17 17:25:00,60.8,41.6,30.29,NW,315,2.0,4.5,49,0.00,,,0.00,WUHU216HW,2013-09-17 21:25:00,
2013-09-17 17:30:00,60.7,41.9,30.29,NW,315,0.9,4.5,50,0.00,,,0.00,WUHU216HW,2013-09-17 21:30:00,
2013-09-17 17:35:00,60.7,41.9,30.29,NW,315,2.0,3.4,50,0.00,,,0.00,WUHU216HW,2013-09-17 21:35:00,
2013-09-17 17:40:00,60.7,42.5,30.29,North,0,1.8,2.9,51,0.00,,,0.00,WUHU216HW,2013-09-17 21:40:00,
2013-09-17 17:45:00,60.5,42.3,30.29,WNW,293,0.4,2.7,51,0.00,,,0.00,WUHU216HW,2013-09-17 21:45:00,
2013-09-17 17:50:00,60.1,41.9,30.29,WNW,293,1.1,2.7,51,0.00,,,0.00,WUHU216HW,2013-09-17 21:50:00,
2013-09-17 17:55:00,59.9,41.8,30.29,West,270,0.2,1.8,51,0.00,,,0.00,WUHU216HW,2013-09-17 21:55:00,
2013-09-17 18:01:00,59.8,41.6,30.29,NNW,338,0.4,1.8,51,0.00,,,0.00,WUHU216HW,2013-09-17 22:01:00,
2013-09-17 18:06:00,59.6,42.0,30.29,NNW,338,0.4,1.8,52,0.00,,,0.00,WUHU216HW,2013-09-17 22:06:00,
2013-09-17 18:11:00,59.2,42.0,30.29,North,0,0.2,0.4,53,0.00,,,0.00,WUHU216HW,2013-09-17 22:11:00,
2013-09-17 18:13:00,59.0,42.4,30.29,NNW,338,0.0,0.7,54,0.00,,,0.00,WUHU216HW,2013-09-17 22:13:00,
2013-09-17 18:14:00,58.9,42.2,30.29,NNE,23,0.4,0.7,54,0.00,,,0.00,WUHU216HW,2013-09-17 22:14:00,
2013-09-17 18:24:00,58.7,42.5,30.29,NNW,338,0.7,0.7,55,0.00,,,0.00,WUHU216HW,2013-09-17 22:24:00,
2013-09-17 18:29:00,57.2,41.7,30.29,NW,315,0.4,0.9,56,0.00,,,0.00,WUHU216HW,2013-09-17 22:29:00,
2013-09-17 18:34:00,56.5,41.4,30.29,NW,315,0.4,0.9,57,0.00,,,0.00,WUHU216HW,2013-09-17 22:34:00,
2013-09-17 18:39:00,56.0,41.4,30.29,NW,315,0.0,0.9,58,0.00,,,0.00,WUHU216HW,2013-09-17 22:39:00,
2013-09-17 18:44:00,55.4,41.8,30.29,ESE,113,0.0,1.1,60,0.00,,,0.00,WUHU216HW,2013-09-17 22:44:00,
2013-09-17 18:49:00,54.7,41.5,30.29,ESE,113,0.0,1.1,61,0.00,,,0.00,WUHU216HW,2013-09-17 22:49:00,
2013-09-17 18:54:00,54.2,41.9,30.29,ESE,113,0.0,0.0,63,0.00,,,0.00,WUHU216HW,2013-09-17 22:54:00,
2013-09-17 18:59:00,53.5,41.9,30.29,ESE,113,0.0,0.0,65,0.00,,,0.00,WUHU216HW,2013-09-17 22:59:00,
2013-09-17 19:04:00,52.6,42.0,30.29,ENE,68,0.7,1.1,67,0.00,,,0.00,WUHU216HW,2013-09-17 23:04:00,
2013-09-17 19:09:00,51.8,41.7,30.29,NW,315,0.0,1.1,68,0.00,,,0.00,WUHU216HW,2013-09-17 23:09:00,
2013-09-17 19:14:00,51.5,41.3,30.29,WNW,293,0.0,0.9,68,0.00,,,0.00,WUHU216HW,2013-09-17 23:14:00,
2013-09-17 19:19:00,50.9,40.8,30.29,North,0,0.0,0.9,68,0.00,,,0.00,WUHU216HW,2013-09-17 23:19:00,
2013-09-17 19:24:00,50.4,40.7,30.29,North,0,0.0,0.0,69,0.00,,,0.00,WUHU216HW,2013-09-17 23:24:00,
2013-09-17 19:30:00,49.9,40.9,30.29,NNE,23,1.1,1.1,71,0.00,,,0.00,WUHU216HW,2013-09-17 23:30:00,
2013-09-17 19:35:00,49.1,40.5,30.29,North,0,0.0,1.3,72,0.00,,,0.00,WUHU216HW,2013-09-17 23:35:00,
2013-09-17 19:40:00,48.6,40.2,30.29,North,0,0.4,1.3,73,0.00,,,0.00,WUHU216HW,2013-09-17 23:40:00,
2013-09-17 19:45:00,48.2,39.9,30.30,NW,315,0.0,1.1,73,0.00,,,0.00,WUHU216HW,2013-09-17 23:45:00,
2013-09-17 19:50:00,47.9,40.0,30.30,WNW,293,0.2,0.4,74,0.00,,,0.00,WUHU216HW,2013-09-17 23:50:00,
2013-09-17 19:55:00,47.3,39.8,30.30,NW,315,0.0,0.4,75,0.00,,,0.00,WUHU216HW,2013-09-17 23:55:00,
2013-09-17 20:00:00,47.0,39.8,30.30,North,0,0.0,0.0,76,0.00,,,0.00,WUHU216HW,2013-09-18 00:00:00,
2013-09-17 20:05:00,46.6,39.8,30.30,NNE,23,0.0,1.1,77,0.00,,,0.00,WUHU216HW,2013-09-18 00:05:00,
2013-09-17 20:10:00,46.3,39.5,30.30,NNE,23,0.0,1.1,77,0.00,,,0.00,WUHU216HW,2013-09-18 00:10:00,
2013-09-17 20:15:00,45.9,39.2,30.30,West,270,0.4,0.9,77,0.00,,,0.00,WUHU216HW,2013-09-18 00:15:00,
2013-09-17 20:20:00,45.7,39.0,30.31,NW,315,0.0,0.9,77,0.00,,,0.00,WUHU216HW,2013-09-18 00:20:00,
2013-09-17 20:25:00,45.5,39.1,30.31,NW,315,0.0,0.4,78,0.00,,,0.00,WUHU216HW,2013-09-18 00:25:00,
2013-09-17 20:30:00,45.4,39.6,30.31,NNE,23,1.1,1.1,80,0.00,,,0.00,WUHU216HW,2013-09-18 00:30:00,
2013-09-17 20:35:00,44.8,38.7,30.31,North,0,0.0,1.1,79,0.00,,,0.00,WUHU216HW,2013-09-18 00:35:00,
2013-09-17 20:40:00,44.5,38.3,30.31,NNW,338,0.9,1.1,79,0.00,,,0.00,WUHU216HW,2013-09-18 00:40:00,
2013-09-17 20:45:00,44.3,38.5,30.31,West,270,0.4,1.1,80,0.00,,,0.00,WUHU216HW,2013-09-18 00:45:00,
2013-09-17 20:50:00,44.3,38.5,30.31,WNW,293,0.4,1.1,80,0.00,,,0.00,WUHU216HW,2013-09-18 00:50:00,
2013-09-17 20:55:00,43.9,38.4,30.31,NNE,23,0.7,1.1,81,0.00,,,0.00,WUHU216HW,2013-09-18 00:55:00,
2013-09-17 21:00:00,43.6,38.1,30.30,NNE,23,0.0,1.1,81,0.00,,,0.00,WUHU216HW,2013-09-18 01:00:00,
2013-09-17 21:05:00,43.2,38.1,30.30,NE,45,0.9,1.1,82,0.00,,,0.00,WUHU216HW,2013-09-18 01:05:00,
2013-09-17 21:10:00,43.0,37.9,30.30,North,0,0.4,1.1,82,0.00,,,0.00,WUHU216HW,2013-09-18 01:10:00,
2013-09-17 21:15:00,42.8,37.7,30.30,NNW,338,0.0,1.1,82,0.00,,,0.00,WUHU216HW,2013-09-18 01:15:00,
2013-09-17 21:20:00,42.7,37.5,30.30,NNW,338,0.0,1.1,82,0.00,,,0.00,WUHU216HW,2013-09-18 01:20:00,
2013-09-17 21:25:00,42.5,37.4,30.30,NW,315,0.0,0.0,82,0.00,,,0.00,WUHU216HW,2013-09-18 01:25:00,
2013-09-17 21:30:00,42.5,38.3,30.30,NE,45,3.4,3.4,85,0.00,,,0.00,WUHU216HW,2013-09-18 01:30:00,
2013-09-17 21:35:00,42.1,37.9,30.30,WNW,293,1.8,3.4,85,0.00,,,0.00,WUHU216HW,2013-09-18 01:35:00,
2013-09-17 21:40:00,42.1,37.9,30.30,North,0,0.7,3.4,85,0.00,,,0.00,WUHU216HW,2013-09-18 01:40:00,
2013-09-17 21:45:00,41.8,37.5,30.30,NNW,338,0.4,1.8,85,0.00,,,0.00,WUHU216HW,2013-09-18 01:45:00,
2013-09-17 21:50:00,41.8,37.3,30.30,NNW,338,0.2,1.1,84,0.00,,,0.00,WUHU216HW,2013-09-18 01:50:00,
2013-09-17 21:55:00,41.4,36.9,30.30,North,0,0.0,1.1,84,0.00,,,0.00,WUHU216HW,2013-09-18 01:55:00,
2013-09-17 22:00:00,41.0,36.6,30.30,NNW,338,0.4,1.1,84,0.00,,,0.00,WUHU216HW,2013-09-18 02:00:00,
2013-09-17 22:06:00,40.7,36.2,30.30,NNW,338,0.0,1.1,84,0.00,,,0.00,WUHU216HW,2013-09-18 02:06:00,
2013-09-17 22:10:00,40.7,36.2,30.30,NNW,338,0.0,0.7,84,0.00,,,0.00,WUHU216HW,2013-09-18 02:10:00,
2013-09-17 22:15:00,40.5,36.0,30.30,ENE,68,0.0,0.0,84,0.00,,,0.00,WUHU216HW,2013-09-18 02:15:00,
2013-09-17 22:20:00,40.3,35.8,30.31,North,0,0.0,0.0,84,0.00,,,0.00,WUHU216HW,2013-09-18 02:20:00,
2013-09-17 22:26:00,40.1,35.9,30.31,NNW,338,0.2,0.7,85,0.00,,,0.00,WUHU216HW,2013-09-18 02:26:00,
2013-09-17 22:31:00,40.0,35.8,30.30,North,0,0.0,0.7,85,0.00,,,0.00,WUHU216HW,2013-09-18 02:31:00,
2013-09-17 22:36:00,39.8,35.7,30.31,NW,315,1.1,1.1,85,0.00,,,0.00,WUHU216HW,2013-09-18 02:36:00,
2013-09-17 22:41:00,39.8,35.9,30.30,NW,315,0.2,1.1,86,0.00,,,0.00,WUHU216HW,2013-09-18 02:41:00,
2013-09-17 22:46:00,39.8,35.9,30.30,North,0,0.0,1.1,86,0.00,,,0.00,WUHU216HW,2013-09-18 02:46:00,
2013-09-17 22:51:00,39.6,35.7,30.30,North,0,0.0,0.7,86,0.00,,,0.00,WUHU216HW,2013-09-18 02:51:00,
2013-09-17 22:56:00,39.2,35.4,30.30,NW,315,0.0,0.7,86,0.00,,,0.00,WUHU216HW,2013-09-18 02:56:00,
2013-09-17 23:01:00,39.1,35.2,30.30,NW,315,0.0,0.0,86,0.00,,,0.00,WUHU216HW,2013-09-18 03:01:00,
2013-09-17 23:06:00,38.7,34.8,30.30,NNW,338,0.7,0.9,86,0.00,,,0.00,WUHU216HW,2013-09-18 03:06:00,
2013-09-17 23:11:00,38.7,34.8,30.30,NNW,338,0.4,0.9,86,0.00,,,0.00,WUHU216HW,2013-09-18 03:11:00,
2013-09-17 23:16:00,38.5,34.9,30.30,NNW,338,0.0,0.9,87,0.00,,,0.00,WUHU216HW,2013-09-18 03:16:00,
2013-09-17 23:21:00,38.3,34.7,30.29,NNW,338,0.0,0.4,87,0.00,,,0.00,WUHU216HW,2013-09-18 03:21:00,
2013-09-17 23:26:00,38.2,34.3,30.29,NNW,338,0.0,0.0,86,0.00,,,0.00,WUHU216HW,2013-09-18 03:26:00,
2013-09-17 23:31:00,38.0,34.4,30.29,NW,315,0.9,0.9,87,0.00,,,0.00,WUHU216HW,2013-09-18 03:31:00,
2013-09-17 23:36:00,38.0,34.4,30.29,WNW,293,0.7,1.1,87,0.00,,,0.00,WUHU216HW,2013-09-18 03:36:00,
2013-09-17 23:41:00,38.0,34.4,30.29,North,0,0.4,1.1,87,0.00,,,0.00,WUHU216HW,2013-09-18 03:41:00,
2013-09-17 23:46:00,38.0,34.4,30.29,North,0,0.4,1.1,87,0.00,,,0.00,WUHU216HW,2013-09-18 03:46:00,
2013-09-17 23:51:00,37.4,33.8,30.29,North,0,0.4,0.7,87,0.00,,,0.00,WUHU216HW,2013-09-18 03:51:00,
2013-09-17 23:56:00,37.3,33.7,30.30,North,0,0.0,0.7,87,0.00,,,0.00,WUHU216HW,2013-09-18 03:56:00,